ADDS METAR Data INFO
IDs: Format: Raw Decoded Include TAF

Data at: 0000 UTC 24 Feb 2018

KGAI 232356Z AUTO 17003KT 3SM BR OVC003 07/06 A3032 RMK AO2 SLP300 T00670056 10067 20056 58011
KGAI 232315Z AUTO 16005KT 3SM BR OVC003 06/06 A3032 RMK AO2
KGAI 232310Z AUTO 15006KT 2 1/2SM BR OVC005 06/06 A3032 RMK AO2
KGAI 232256Z AUTO 14005KT 3SM BR OVC005 06/06 A3033 RMK AO2 SLP302 T00610056
KGAI 232226Z AUTO 16005KT 6SM BR OVC005 07/06 A3034 RMK AO2
KGAI 232156Z AUTO 16005KT 9SM OVC007 07/05 A3035 RMK AO2 SLP308 T00670050
KGAI 232140Z AUTO 17006KT 9SM OVC007 07/05 A3035 RMK AO2
KGAI 232056Z AUTO 16006KT 9SM OVC005 06/05 A3035 RMK AO2 SLP311 T00610050 56034
KGAI 231956Z AUTO 16006KT 7SM OVC005 06/05 A3038 RMK AO2 SLP321 T00610050
KGAI 231856Z AUTO 19007KT 10SM OVC005 06/05 A3042 RMK AO2 RAE1757 CIG 004V007 SLP335 T00610050
KGAI 231808Z AUTO 14006KT 5SM BR OVC005 06/05 A3044 RMK AO2 RAE1757 CIG 004V009
KGAI 231756Z AUTO 14009KT 2 1/2SM -RA BR OVC005 06/05 A3045 RMK AO2 RAB13 CIG 004V008 PRESFR SLP346 P0000 60018 T00560050 10056 20033 57022
KGAI 231751Z AUTO 13007KT 2 1/2SM -RA BR OVC005 06/04 A3046 RMK AO2 RAB13 CIG 004V008 P0000
KGAI 231719Z AUTO 11004KT 1 3/4SM -RA BR OVC005 05/04 A3050 RMK AO2 RAB13 P0000
KGAI 231656Z AUTO 14007KT 2SM BR OVC005 05/04 A3051 RMK AO2 CIG 004V009 SLP365 T00500039
KGAI 231647Z AUTO 15006KT 2 1/2SM BR OVC005 05/04 A3052 RMK AO2 CIG 004V010
KGAI 231625Z AUTO 14008KT 3SM BR OVC007 04/04 A3052 RMK AO2 CIG 004V011
KGAI 231612Z AUTO 14009KT 3SM BR BKN005 OVC011 04/04 A3053 RMK AO2
KGAI 231556Z AUTO 13008KT 7SM OVC010 04/03 A3053 RMK AO2 CIG 005V013 SLP373 T00440033
KGAI 231522Z AUTO 13007KT 4SM BR BKN007 OVC011 04/04 A3055 RMK AO2 CIG 004V008
KGAI 231510Z AUTO 11006KT 2 1/2SM BR OVC007 04/03 A3055 RMK AO2 VIS 1 3/4V4 CIG 004V009
KGAI 231456Z AUTO 10004KT 3SM BR OVC007 04/03 A3056 RMK AO2 CIG 005V009 SLP382 60018 T00390033 58006
KGAI 231356Z AUTO 12007KT 10SM BKN007 OVC017 04/03 A3056 RMK AO2 RAE29 CIG 004V009 SLP382 P0001 T00390033
KGAI 231256Z AUTO 12005KT 5SM -RA BR BKN005 OVC010 03/03 A3058 RMK AO2 RAB00SNB18E29 CIG 004V007 SLP388 P0017 T00330028
KGAI 231247Z AUTO 11004KT 4SM RA BR BKN005 BKN009 OVC017 03/03 A3058 RMK AO2 RAB00SNB18E29 CIG 004V007 P0016
KGAI 231235Z AUTO 10005KT 4SM -RA BR SCT005 BKN011 OVC017 03/03 A3057 RMK AO2 RAB00SNB18E29 P0015
KGAI 231231Z AUTO 11005KT 3SM -RA BR BKN005 BKN009 OVC017 03/03 A3057 RMK AO2 RAB00SNB18E29 CIG 004V008 P0013
KGAI 231221Z AUTO 11005KT 1 3/4SM -SN BR BKN005 BKN010 OVC020 03/03 A3057 RMK AO2 VIS 1 1/4V5 RAB00E18SNB18 CIG 004V007 P0011
KGAI 231156Z AUTO 11003KT 5SM BR OVC005 03/03 A3057 RMK AO2 RAE55 CIG 003V008 SLP387 P0000 60002 70013 T00330028 10044 20033 55000
KGAI 231117Z AUTO VRB05KT 4SM -RA BR OVC005 03/03 A3056 RMK AO2 CIG 003V008 P0000
KGAI 231056Z AUTO VRB04KT 2 1/2SM -RA BR OVC005 04/03 A3056 RMK AO2 CIG 003V007 SLP383 P0000 T00390033
KGAI 230956Z AUTO 08005KT 4SM -RA BR OVC005 04/03 A3056 RMK AO2 RAE15B44 CIG 004V008 SLP383 P0001 T00390033
KGAI 230931Z AUTO 00000KT 3SM BR OVC005 04/03 A3057 RMK AO2 RAE15 P0001
KGAI 230856Z AUTO 11004KT 6SM -RA BR OVC007 04/03 A3058 RMK AO2 RAB31 CIG 005V010 SLP387 P0001 60001 T00390028 58003
KGAI 230656Z AUTO 11006KT 5SM -RA BR OVC009 04/03 A3058 RMK AO2 RAB00E13B46 CIG 007V012 SLP389 P0000 T00390028
KGAI 230623Z AUTO 11007KT 10SM FEW009 BKN013 OVC019 04/03 A3059 RMK AO2 RAB00E13 P0000
KGAI 230556Z AUTO 10006KT 10SM OVC007 04/03 A3058 RMK AO2 SLP390 60000 T00440033 10056 20044 56004
KGAI 230456Z AUTO 09004KT 10SM OVC007 04/03 A3059 RMK AO2 SLP391 T00440033 401830044
KGAI 230430Z AUTO VRB03KT 10SM OVC009 04/03 A3059 RMK AO2 CIG 008V013
KGAI 230356Z AUTO 09005KT 10SM OVC010 04/03 A3059 RMK AO2 SLP394 T00440028
KGAI 230256Z AUTO VRB06KT 10SM OVC010 05/03 A3060 RMK AO2 SLP395 60000 T00500033 51010
KGAI 230253Z AUTO 09007KT 10SM OVC010 05/03 A3060 RMK AO2
KGAI 230221Z AUTO 09007KT 10SM OVC008 05/04 A3058 RMK AO2
KGAI 230156Z AUTO 08006KT 10SM OVC010 05/04 A3058 RMK AO2 SLP390 T00500039
KGAI 230056Z AUTO VRB03KT 10SM OVC006 06/05 A3057 RMK AO2 RAB26E51 SLP384 P0000 T00560050
KGAI 222356Z AUTO VRB05KT 10SM OVC008 06/05 A3055 RMK AO2 RAE54 SLP377 P0001 60011 T00560050 10111 20056 51016
KGAI 222337Z AUTO VRB06KT 10SM -RA OVC008 06/05 A3054 RMK AO2 CIG 006V010 P0001
KGAI 222314Z AUTO VRB04KT 10SM -RA BKN010 OVC015 06/06 A3054 RMK AO2 CIG 007V012 P0000
KGAI 222256Z AUTO VRB06KT 10SM -RA OVC008 06/06 A3053 RMK AO2 CIG 006V011 SLP372 P0002 T00610056
KGAI 222218Z AUTO VRB05KT 5SM -RA BR OVC006 07/06 A3054 RMK AO2 P0002
KGAI 222156Z AUTO VRB05KT 2 1/2SM -RA BR BKN006 OVC039 07/06 A3053 RMK AO2 CIG 003V012 SLP373 P0008 T00670061
KGAI 222135Z AUTO 01004KT 3SM RA BR OVC006 07/07 A3051 RMK AO2 P0004
KGAI 222118Z AUTO 36005KT 1 3/4SM RA BR OVC006 07/07 A3051 RMK AO2 P0000
KGAI 222056Z AUTO VRB04KT 3SM -RA BR OVC006 07/06 A3050 RMK AO2 RAB03 SLP362 P0000 60000 T00720061 53016
KGAI 222042Z AUTO 35004KT 4SM -RA BR BKN006 OVC017 07/06 A3049 RMK AO2 RAB03 P0000
KGAI 222022Z AUTO 01004KT 5SM -RA BR FEW008 OVC019 08/06 A3048 RMK AO2 RAB03 P0000
KGAI 221956Z AUTO VRB03KT 10SM OVC021 10/06 A3048 RMK AO2 SLP352 T01000056
KGAI 221856Z AUTO 13004KT 10SM OVC019 11/06 A3043 RMK AO2 SLP336 T01060056
KGAI 221756Z AUTO 10005KT 10SM OVC021 11/06 A3045 RMK AO2 SLP343 60000 T01060056 10111 20089 58014
KGAI 221656Z AUTO VRB03KT 10SM OVC025 10/05 A3049 RMK AO2 RAE20 SLP353 P0000 T01000050
KGAI 221556Z AUTO 00000KT 10SM -RA OVC023 09/04 A3051 RMK AO2 RAB49 SLP363 P0000 T00890044
KGAI 221456Z AUTO 00000KT 10SM OVC023 10/03 A3049 RMK AO2 RAB35E49 SLP356 P0000 60000 T01000033 51011
KGAI 221356Z AUTO VRB05KT 10SM OVC023 10/02 A3049 RMK AO2 SLP355 T01000022
KGAI 221256Z AUTO 02004KT 10SM OVC025 10/02 A3049 RMK AO2 RAB05E24 SLP352 P0000 T01000017